createdAt,value
2018-10-12T00:01:34.365Z,99233.27
2018-10-12T00:04:02.813Z,99229.55
2018-10-12T00:06:31.314Z,99224.95
2018-10-12T00:09:00.000Z,99222.68
2018-10-12T00:11:28.489Z,99225.36
2018-10-12T00:13:56.954Z,99219.53
2018-10-12T00:16:25.693Z,99223.73
2018-10-12T00:18:54.219Z,99219.53
2018-10-12T00:21:22.828Z,99230.27
2018-10-12T00:23:51.571Z,99241.08
2018-10-12T00:26:20.011Z,99239.70
2018-10-12T00:28:48.476Z,99236.27
2018-10-12T00:31:16.971Z,99238.56
2018-10-12T00:33:45.480Z,99237.02
2018-10-12T00:36:13.963Z,99240.44
2018-10-12T00:38:42.433Z,99232.19
2018-10-12T00:41:10.880Z,99232.27
2018-10-12T00:43:39.358Z,99250.73
2018-10-12T00:46:07.851Z,99245.23
2018-10-12T00:48:36.313Z,99244.64
2018-10-12T00:51:04.795Z,99251.53
2018-10-12T00:53:33.419Z,99261.81
2018-10-12T00:56:01.933Z,99261.66
2018-10-12T00:58:30.385Z,99276.50
2018-10-12T01:00:58.843Z,99269.70
2018-10-12T01:03:27.255Z,99269.34
2018-10-12T01:05:55.761Z,99271.75
2018-10-12T01:08:24.215Z,99266.97
2018-10-12T01:10:52.683Z,99267.68
2018-10-12T01:13:21.273Z,99265.11
2018-10-12T01:15:49.752Z,99267.34
2018-10-12T01:18:18.309Z,99265.00
2018-10-12T01:20:46.723Z,99266.11
2018-10-12T01:23:15.217Z,99274.20
2018-10-12T01:25:43.662Z,99272.31
2018-10-12T01:28:12.172Z,99274.20
2018-10-12T01:30:41.439Z,99282.95
2018-10-12T01:33:09.939Z,99283.50
2018-10-12T01:35:38.364Z,99285.66
2018-10-12T01:38:06.832Z,99289.17
2018-10-12T01:40:35.244Z,99291.89
2018-10-12T01:43:03.761Z,99293.78
2018-10-12T01:45:32.171Z,99301.41
2018-10-12T01:48:00.948Z,99292.45
2018-10-12T01:50:29.389Z,99293.65
2018-10-12T01:52:57.848Z,99297.34
2018-10-12T01:55:26.329Z,99285.45
2018-10-12T01:57:54.868Z,99294.97
2018-10-12T02:00:23.636Z,99296.14
2018-10-12T02:02:52.139Z,99307.70
2018-10-12T02:05:20.869Z,99309.29
2018-10-12T02:07:49.345Z,99312.63
2018-10-12T02:10:17.797Z,99311.94
2018-10-12T02:12:46.278Z,99319.84
2018-10-12T02:15:14.996Z,99322.80
2018-10-12T02:17:43.433Z,99326.66
2018-10-12T02:20:12.263Z,99321.61
2018-10-12T02:22:41.012Z,99322.55
2018-10-12T02:25:09.947Z,99313.50
2018-10-12T02:27:38.392Z,99315.73
2018-10-12T02:30:07.853Z,99316.50
2018-10-12T02:32:36.307Z,99319.07
2018-10-12T02:35:05.377Z,99313.92
2018-10-12T02:37:33.881Z,99308.95
2018-10-12T02:40:02.975Z,99317.74
2018-10-12T02:42:31.469Z,99321.73
2018-10-12T02:45:00.561Z,99331.11
2018-10-12T02:47:29.079Z,99331.33
2018-10-12T02:49:57.592Z,99333.53
2018-10-12T02:52:26.049Z,99319.93
2018-10-12T02:54:54.544Z,99322.11
2018-10-12T02:57:23.065Z,99328.25
2018-10-12T02:59:51.538Z,99329.33
2018-10-12T03:02:20.030Z,99325.70
2018-10-12T03:04:48.775Z,99334.42
2018-10-12T03:07:17.254Z,99337.84
2018-10-12T03:09:45.686Z,99337.69
2018-10-12T03:12:14.160Z,99347.05
2018-10-12T03:14:42.757Z,99347.84
2018-10-12T03:17:11.455Z,99352.80
2018-10-12T03:19:40.513Z,99354.75
2018-10-12T03:22:08.955Z,99346.56
2018-10-12T03:24:37.465Z,99360.42
2018-10-12T03:27:06.111Z,99367.50
2018-10-12T03:29:34.594Z,99374.05
2018-10-12T03:32:03.048Z,99378.23
2018-10-12T03:34:31.800Z,99372.57
2018-10-12T03:37:00.273Z,99382.44
2018-10-12T03:39:28.736Z,99380.16
2018-10-12T03:41:57.198Z,99383.83
2018-10-12T03:44:25.719Z,99387.50
2018-10-12T03:46:54.092Z,99390.47
2018-10-12T03:49:23.037Z,99386.31
2018-10-12T03:51:51.504Z,99390.06
2018-10-12T03:54:20.141Z,99392.25
2018-10-12T03:56:48.583Z,99389.80
2018-10-12T03:59:17.056Z,99405.55
2018-10-12T04:01:45.571Z,99412.08
2018-10-12T04:04:14.059Z,99412.41
2018-10-12T04:06:42.583Z,99417.94
2018-10-12T04:09:11.044Z,99408.75
2018-10-12T04:11:39.530Z,99415.09
2018-10-12T04:14:08.000Z,99412.02
2018-10-12T04:16:36.417Z,99413.34
2018-10-12T04:19:04.904Z,99406.14
2018-10-12T04:21:33.315Z,99410.98
2018-10-12T04:24:01.805Z,99415.01
2018-10-12T04:26:30.236Z,99427.91
2018-10-12T04:28:58.676Z,99422.84
2018-10-12T04:31:27.120Z,99424.27
2018-10-12T04:33:55.539Z,99426.20
2018-10-12T04:36:24.520Z,99429.93
2018-10-12T04:39:05.031Z,99435.73
2018-10-12T04:41:33.507Z,99441.90
2018-10-12T04:44:03.728Z,99443.92
2018-10-12T04:46:47.771Z,99447.31
2018-10-12T04:49:17.221Z,99451.30
2018-10-12T04:51:48.777Z,99460.10
2018-10-12T04:54:18.009Z,99458.33
2018-10-12T04:56:47.176Z,99455.33
2018-10-12T04:59:15.709Z,99458.28
2018-10-12T05:01:44.167Z,99470.88
2018-10-12T05:04:13.611Z,99467.02
2018-10-12T05:06:43.100Z,99443.02
2018-10-12T05:09:12.523Z,99492.14
2018-10-12T05:11:41.421Z,99484.77
2018-10-12T05:14:10.372Z,99492.27
2018-10-12T05:16:38.941Z,99489.73
2018-10-12T05:19:08.421Z,99493.02
2018-10-12T05:21:36.860Z,99489.47
2018-10-12T05:24:05.281Z,99494.68
2018-10-12T05:26:33.871Z,99500.91
2018-10-12T05:29:02.848Z,99502.02
2018-10-12T05:31:31.310Z,99498.66
2018-10-12T05:34:00.010Z,99499.41
2018-10-12T05:36:28.459Z,99507.28
2018-10-12T05:38:57.050Z,99515.88
2018-10-12T05:41:25.558Z,99517.67
2018-10-12T05:43:54.523Z,99520.91
2018-10-12T05:46:23.063Z,99524.44
2018-10-12T05:49:02.718Z,99542.11
2018-10-12T05:51:31.167Z,99540.72
2018-10-12T05:54:00.281Z,99545.98
2018-10-12T05:56:30.894Z,99549.66
2018-10-12T05:58:59.826Z,99552.80
2018-10-12T06:01:28.443Z,99563.02
2018-10-12T06:03:57.017Z,99571.21
2018-10-12T06:06:25.481Z,99563.81
2018-10-12T06:08:54.684Z,99527.45
2018-10-12T06:11:23.600Z,99559.13
2018-10-12T06:13:52.056Z,99567.41
2018-10-12T06:16:20.526Z,99561.73
2018-10-12T06:18:49.174Z,99561.10
2018-10-12T06:21:17.995Z,99555.27
2018-10-12T06:23:46.552Z,99553.94
2018-10-12T06:26:15.659Z,99554.17
2018-10-12T06:28:44.245Z,99557.86
2018-10-12T06:31:13.086Z,99562.98
2018-10-12T06:33:42.109Z,99563.61
2018-10-12T06:36:10.753Z,99563.58
2018-10-12T06:38:39.258Z,99575.84
2018-10-12T06:41:08.060Z,99579.39
2018-10-12T06:43:36.727Z,99578.91
2018-10-12T06:46:05.248Z,99583.16
2018-10-12T06:48:33.759Z,99583.89
2018-10-12T06:51:04.660Z,99587.39
2018-10-12T06:53:33.173Z,99595.97
2018-10-12T06:56:01.700Z,99603.70
2018-10-12T06:58:30.277Z,99606.27
2018-10-12T07:00:59.545Z,99609.77
2018-10-12T07:03:28.129Z,99610.45
2018-10-12T07:05:56.615Z,99614.73
2018-10-12T07:08:26.512Z,99615.59
2018-10-12T07:10:55.014Z,99614.52
2018-10-12T07:13:23.470Z,99615.94
2018-10-12T07:15:52.624Z,99617.69
2018-10-12T07:18:21.124Z,99619.20
2018-10-12T07:20:49.563Z,99620.52
2018-10-12T07:23:18.082Z,99619.86
2018-10-12T07:25:46.578Z,99622.16
2018-10-12T07:28:15.057Z,99626.67
2018-10-12T07:30:43.530Z,99620.83
2018-10-12T07:33:12.039Z,99624.45
2018-10-12T07:35:40.743Z,99628.07
2018-10-12T07:38:09.193Z,99629.16
2018-10-12T07:40:37.626Z,99624.14
2018-10-12T07:43:06.049Z,99628.22
2018-10-12T07:45:34.528Z,99631.17
2018-10-12T07:48:03.152Z,99626.44
2018-10-12T07:50:31.566Z,99632.25
2018-10-12T07:53:00.865Z,99632.55
2018-10-12T07:55:29.345Z,99634.18
2018-10-12T07:57:58.106Z,99638.77
2018-10-12T08:00:26.381Z,99637.38
2018-10-12T08:02:54.979Z,99639.47
2018-10-12T08:05:23.499Z,99646.00
2018-10-12T08:07:51.930Z,99640.82
2018-10-12T08:10:20.407Z,99643.09
2018-10-12T08:12:48.869Z,99640.84
2018-10-12T08:15:17.323Z,99638.29
2018-10-12T08:17:45.926Z,99635.02
2018-10-12T08:20:14.902Z,99636.95
2018-10-12T08:22:43.437Z,99632.79
2018-10-12T08:25:11.922Z,99631.32
2018-10-12T08:27:40.391Z,99637.09
2018-10-12T08:30:09.068Z,99637.07
2018-10-12T08:32:37.724Z,99632.91
2018-10-12T08:35:06.431Z,99633.83
2018-10-12T08:37:34.956Z,99636.48
2018-10-12T08:40:03.486Z,99637.41
2018-10-12T08:42:32.826Z,99637.68
2018-10-12T08:45:01.343Z,99639.70
2018-10-12T08:47:30.081Z,99646.08
2018-10-12T08:49:58.664Z,99643.17
2018-10-12T08:52:27.082Z,99644.87
2018-10-12T08:54:55.625Z,99638.38
2018-10-12T08:57:24.816Z,99637.67
2018-10-12T08:59:53.369Z,99649.09
2018-10-12T09:02:22.317Z,99646.40
2018-10-12T09:04:51.698Z,99646.39
2018-10-12T09:07:20.183Z,99640.95
2018-10-12T09:09:48.728Z,99635.95
2018-10-12T09:12:17.197Z,99637.61
2018-10-12T09:14:45.645Z,99646.10
2018-10-12T09:17:14.167Z,99637.52
2018-10-12T09:19:42.639Z,99642.95
2018-10-12T09:22:11.124Z,99639.30
2018-10-12T09:24:39.607Z,99641.45
2018-10-12T09:27:09.152Z,99651.79
2018-10-12T09:29:37.605Z,99650.20
2018-10-12T09:32:06.085Z,99651.73
2018-10-12T09:34:34.518Z,99645.87
2018-10-12T09:37:03.251Z,99652.80
2018-10-12T09:39:32.255Z,99646.91
2018-10-12T09:42:01.120Z,99652.45
2018-10-12T09:44:29.935Z,99653.36
2018-10-12T09:46:58.504Z,99650.33
2018-10-12T09:49:26.950Z,99652.34
2018-10-12T09:51:55.952Z,99656.25
2018-10-12T09:54:24.945Z,99655.84
2018-10-12T09:56:58.651Z,99655.61
2018-10-12T09:59:27.253Z,99658.35
2018-10-12T10:02:00.973Z,99654.29
2018-10-12T10:04:32.607Z,99654.88
2018-10-12T10:07:02.471Z,99654.91
2018-10-12T10:09:31.002Z,99654.35
2018-10-12T10:11:59.789Z,99657.16
2018-10-12T10:14:29.479Z,99651.84
2018-10-12T10:16:57.996Z,99649.48
2018-10-12T10:19:26.634Z,99653.75
2018-10-12T10:21:55.600Z,99646.45
2018-10-12T10:24:24.107Z,99647.59
2018-10-12T10:26:52.678Z,99655.58
2018-10-12T10:29:21.798Z,99648.18
2018-10-12T10:31:50.231Z,99639.16
2018-10-12T10:34:18.902Z,99646.21
2018-10-12T10:36:48.056Z,99639.36
2018-10-12T10:39:16.335Z,99647.28
2018-10-12T10:41:44.810Z,99645.70
2018-10-12T10:44:13.284Z,99650.05
2018-10-12T10:46:42.213Z,99648.25
2018-10-12T10:49:10.640Z,99638.84
2018-10-12T10:51:39.117Z,99645.70
2018-10-12T10:54:07.591Z,99636.38
2018-10-12T10:56:36.031Z,99623.23
2018-10-12T10:59:05.120Z,99626.42
2018-10-12T11:01:33.533Z,99622.41
2018-10-12T11:04:02.064Z,99627.75
2018-10-12T11:06:30.601Z,99623.80
2018-10-12T11:08:59.239Z,99621.38
2018-10-12T11:11:27.777Z,99609.67
2018-10-12T11:13:56.350Z,99605.44
2018-10-12T11:16:24.750Z,99594.83
2018-10-12T11:18:53.245Z,99583.50
2018-10-12T11:21:21.736Z,99584.08
2018-10-12T11:23:50.159Z,99591.50
2018-10-12T11:26:18.681Z,99579.78
2018-10-12T11:28:47.111Z,99584.52
2018-10-12T11:31:15.531Z,99586.98
2018-10-12T11:33:44.067Z,99578.59
2018-10-12T11:36:12.515Z,99595.85
2018-10-12T11:38:40.988Z,99588.11
2018-10-12T11:41:09.392Z,99590.75
2018-10-12T11:43:38.991Z,99581.09
2018-10-12T11:46:08.561Z,99579.02
2018-10-12T11:48:36.990Z,99582.87
2018-10-12T11:51:05.458Z,99578.16
2018-10-12T11:53:34.423Z,99580.67
2018-10-12T11:56:03.658Z,99579.77
2018-10-12T11:58:32.530Z,99568.52
2018-10-12T12:01:01.008Z,99575.05
2018-10-12T12:03:30.098Z,99572.81
2018-10-12T12:05:58.541Z,99580.85
2018-10-12T12:08:27.166Z,99576.89
2018-10-12T12:10:55.610Z,99577.59
2018-10-12T12:13:24.329Z,99573.40
2018-10-12T12:15:52.780Z,99572.90
2018-10-12T12:18:21.223Z,99572.28
2018-10-12T12:20:49.699Z,99574.48
2018-10-12T12:23:18.171Z,99574.84
2018-10-12T12:25:46.559Z,99565.92
2018-10-12T12:28:14.964Z,99562.45
2018-10-12T12:30:44.262Z,99557.54
2018-10-12T12:33:12.738Z,99559.09
2018-10-12T12:35:41.511Z,99559.48
2018-10-12T12:38:09.653Z,99551.77
2018-10-12T12:40:38.064Z,99549.69
2018-10-12T12:43:06.505Z,99552.61
2018-10-12T12:45:34.952Z,99553.13
2018-10-12T12:48:10.034Z,99549.97
2018-10-12T12:50:38.289Z,99551.98
2018-10-12T12:53:07.943Z,99550.78
2018-10-12T12:55:36.394Z,99551.86
2018-10-12T12:58:04.836Z,99552.70
2018-10-12T13:00:33.266Z,99568.34
2018-10-12T13:03:02.592Z,99564.80
2018-10-12T13:05:30.987Z,99564.00
2018-10-12T13:07:59.397Z,99565.23
2018-10-12T13:10:27.834Z,99560.48
2018-10-12T13:12:56.267Z,99551.95
2018-10-12T13:15:24.693Z,99559.77
2018-10-12T13:17:53.149Z,99553.04
2018-10-12T13:20:21.623Z,99565.61
2018-10-12T13:22:50.052Z,99559.95
2018-10-12T13:25:18.499Z,99562.89
2018-10-12T13:27:46.940Z,99568.00
2018-10-12T13:30:15.460Z,99558.31
2018-10-12T13:32:44.152Z,99569.21
2018-10-12T13:35:12.625Z,99569.80
2018-10-12T13:37:41.150Z,99574.60
2018-10-12T13:40:09.559Z,99570.87
2018-10-12T13:42:38.003Z,99572.84
2018-10-12T13:45:06.561Z,99574.84
2018-10-12T13:47:34.949Z,99575.69
2018-10-12T13:50:03.423Z,99576.58
2018-10-12T13:52:31.988Z,99580.17
2018-10-12T13:55:00.430Z,99573.31
2018-10-12T13:57:28.882Z,99578.57
2018-10-12T13:59:57.357Z,99572.66
2018-10-12T14:02:25.815Z,99570.56
2018-10-12T14:04:54.248Z,99570.30
2018-10-12T14:07:23.338Z,99575.20
2018-10-12T14:09:52.082Z,99575.83
2018-10-12T14:12:20.738Z,99573.15
2018-10-12T14:14:49.149Z,99571.16
2018-10-12T14:17:17.560Z,99573.70
2018-10-12T14:19:46.629Z,99569.55
2018-10-12T14:22:15.172Z,99572.81
2018-10-12T14:24:44.061Z,99581.44
2018-10-12T14:27:12.645Z,99574.08
2018-10-12T14:29:41.184Z,99576.61
2018-10-12T14:32:09.612Z,99580.02
2018-10-12T14:34:38.365Z,99584.48
2018-10-12T14:37:07.071Z,99579.80
2018-10-12T14:39:35.603Z,99578.69
2018-10-12T14:42:04.863Z,99579.84
2018-10-12T14:44:33.986Z,99578.57
2018-10-12T14:47:03.338Z,99581.80
2018-10-12T14:49:33.058Z,99576.38
2018-10-12T14:52:01.653Z,99580.59
2018-10-12T14:54:30.131Z,99579.96
2018-10-12T14:56:59.699Z,99581.79
2018-10-12T14:59:28.234Z,99581.48
2018-10-12T15:01:56.856Z,99583.31
2018-10-12T15:04:25.438Z,99578.80
2018-10-12T15:06:53.923Z,99574.98
2018-10-12T15:09:23.260Z,99580.58
2018-10-12T15:11:51.883Z,99580.66
2018-10-12T15:14:29.503Z,99588.61
2018-10-12T15:16:58.069Z,99586.06
2018-10-12T15:19:26.504Z,99588.97
2018-10-12T15:21:55.578Z,99589.97
2018-10-12T15:24:24.035Z,99592.05
2018-10-12T15:26:52.563Z,99592.26
2018-10-12T15:29:21.081Z,99590.48
2018-10-12T15:31:49.577Z,99587.84
2018-10-12T15:34:18.039Z,99592.69
2018-10-12T15:36:46.543Z,99590.42
2018-10-12T15:39:14.945Z,99590.27
2018-10-12T15:41:43.512Z,99589.33
2018-10-12T15:44:11.991Z,99593.61
2018-10-12T15:46:40.495Z,99590.90
2018-10-12T15:49:09.093Z,99589.59
2018-10-12T15:51:37.755Z,99588.09
2018-10-12T15:54:06.128Z,99599.45
2018-10-12T15:56:34.813Z,99591.80
2018-10-12T15:59:03.270Z,99594.88
2018-10-12T16:01:31.739Z,99595.02
2018-10-12T16:04:00.512Z,99591.63
2018-10-12T16:06:29.004Z,99602.75
2018-10-12T16:08:57.514Z,99599.09
2018-10-12T16:11:26.256Z,99602.79
2018-10-12T16:13:55.532Z,99603.53
2018-10-12T16:16:24.009Z,99583.14
2018-10-12T16:18:52.495Z,99601.90
2018-10-12T16:21:20.998Z,99606.20
2018-10-12T16:23:51.168Z,99600.78
2018-10-12T16:26:23.664Z,99606.65
2018-10-12T16:28:52.146Z,99606.68
2018-10-12T16:31:20.589Z,99606.88
2018-10-12T16:33:49.029Z,99602.70
2018-10-12T16:36:17.445Z,99603.31
2018-10-12T16:38:45.884Z,99609.34
2018-10-12T16:41:14.352Z,99615.66
2018-10-12T16:43:42.857Z,99617.92
2018-10-12T16:46:11.930Z,99620.53
2018-10-12T16:48:40.554Z,99608.27
2018-10-12T16:51:09.515Z,99628.66
2018-10-12T16:53:39.725Z,99624.12
2018-10-12T16:56:08.143Z,99627.56
2018-10-12T16:58:37.499Z,99628.83
2018-10-12T17:01:05.965Z,99632.68
2018-10-12T17:03:34.389Z,99631.42
2018-10-12T17:06:02.848Z,99627.07
2018-10-12T17:08:31.315Z,99630.33
2018-10-12T17:10:59.733Z,99634.81
2018-10-12T17:13:28.190Z,99637.64
2018-10-12T17:15:56.592Z,99637.11
2018-10-12T17:18:26.203Z,99638.77
2018-10-12T17:20:54.552Z,99645.23
2018-10-12T17:23:24.740Z,99643.19
2018-10-12T17:25:53.224Z,99650.02
2018-10-12T17:28:21.809Z,99649.31
2018-10-12T17:30:50.555Z,99649.05
2018-10-12T17:33:19.005Z,99648.46
2018-10-12T17:35:47.471Z,99651.30
2018-10-12T17:38:15.938Z,99654.28
2018-10-12T17:40:44.389Z,99652.94
2018-10-12T17:43:12.855Z,99660.04
2018-10-12T17:45:41.279Z,99663.78
2018-10-12T17:48:09.879Z,99662.51
2018-10-12T17:50:40.951Z,99665.37
2018-10-12T17:53:09.464Z,99669.94
2018-10-12T17:55:38.284Z,99674.87
2018-10-12T17:58:06.850Z,99671.89
2018-10-12T18:00:35.420Z,99681.00
2018-10-12T18:03:04.037Z,99682.72
2018-10-12T18:05:32.567Z,99680.58
2018-10-12T18:08:01.081Z,99684.78
2018-10-12T18:10:30.412Z,99690.67
2018-10-12T18:12:58.913Z,99696.28
2018-10-12T18:15:27.977Z,99694.30
2018-10-12T18:17:56.574Z,99698.19
2018-10-12T18:20:25.124Z,99698.52
2018-10-12T18:22:53.632Z,99695.83
2018-10-12T18:25:22.070Z,99693.18
2018-10-12T18:27:51.029Z,99697.06
2018-10-12T18:30:20.140Z,99693.84
2018-10-12T18:32:49.149Z,99688.67
2018-10-12T18:35:17.610Z,99691.53
2018-10-12T18:37:46.067Z,99685.34
2018-10-12T18:40:14.584Z,99690.55
2018-10-12T18:42:43.086Z,99691.08
2018-10-12T18:45:11.561Z,99694.63
2018-10-12T18:47:40.107Z,99694.58
2018-10-12T18:50:08.978Z,99697.44
2018-10-12T18:52:37.428Z,99690.59
2018-10-12T18:55:06.315Z,99700.66
2018-10-12T18:57:35.850Z,99703.87
2018-10-12T19:00:06.390Z,99694.34
2018-10-12T19:02:35.839Z,99695.86
2018-10-12T19:05:04.468Z,99699.73
2018-10-12T19:07:32.989Z,99707.27
2018-10-12T19:10:01.535Z,99702.26
2018-10-12T19:12:29.983Z,99708.28
2018-10-12T19:14:58.486Z,99707.28
2018-10-12T19:17:26.865Z,99705.78
2018-10-12T19:19:56.164Z,99710.13
2018-10-12T19:22:25.101Z,99710.97
2018-10-12T19:24:53.607Z,99718.55
2018-10-12T19:27:22.338Z,99708.64
2018-10-12T19:29:51.048Z,99714.31
2018-10-12T19:32:20.440Z,99716.01
2018-10-12T19:34:48.971Z,99716.34
2018-10-12T19:37:17.415Z,99716.68
2018-10-12T19:39:45.928Z,99720.03
2018-10-12T19:42:14.817Z,99724.56
2018-10-12T19:44:43.304Z,99727.94
2018-10-12T19:47:11.734Z,99724.56
2018-10-12T19:49:41.480Z,99721.88
2018-10-12T19:52:09.941Z,99726.73
2018-10-12T19:54:38.350Z,99728.38
2018-10-12T19:57:06.791Z,99730.42
2018-10-12T19:59:35.253Z,99732.93
2018-10-12T20:02:03.862Z,99733.44
2018-10-12T20:04:32.834Z,99738.79
2018-10-12T20:07:01.406Z,99732.73
2018-10-12T20:09:29.888Z,99736.73
2018-10-12T20:11:58.690Z,99738.44
2018-10-12T20:14:27.661Z,99742.78
2018-10-12T20:16:56.145Z,99734.78
2018-10-12T20:19:25.399Z,99739.63
2018-10-12T20:21:53.927Z,99744.84
2018-10-12T20:24:22.454Z,99743.63
2018-10-12T20:26:50.895Z,99739.09
2018-10-12T20:29:19.305Z,99743.06
2018-10-12T20:31:47.932Z,99747.78
2018-10-12T20:34:16.705Z,99747.27
2018-10-12T20:36:45.151Z,99741.54
2018-10-12T20:39:13.591Z,99742.58
2018-10-12T20:41:42.956Z,99745.41
2018-10-12T20:44:11.349Z,99743.07
2018-10-12T20:46:40.075Z,99754.25
2018-10-12T20:49:08.536Z,99752.88
2018-10-12T20:51:37.495Z,99757.91
2018-10-12T20:54:06.163Z,99759.58
2018-10-12T20:56:34.617Z,99757.23
2018-10-12T20:59:03.113Z,99757.05
2018-10-12T21:01:31.607Z,99754.16
2018-10-12T21:04:00.165Z,99753.30
2018-10-12T21:06:28.712Z,99756.66
2018-10-12T21:08:57.629Z,99750.06
2018-10-12T21:11:26.159Z,99754.02
2018-10-12T21:13:54.623Z,99755.31
2018-10-12T21:16:23.055Z,99757.95
2018-10-12T21:18:51.501Z,99753.22
2018-10-12T21:21:20.209Z,99756.48
2018-10-12T21:23:49.364Z,99757.74
2018-10-12T21:26:17.820Z,99757.41
2018-10-12T21:28:46.312Z,99746.98
2018-10-12T21:31:14.796Z,99749.80
2018-10-12T21:33:43.735Z,99752.90
2018-10-12T21:36:12.435Z,99753.19
2018-10-12T21:38:41.389Z,99749.12
2018-10-12T21:41:09.873Z,99751.08
2018-10-12T21:43:38.516Z,99750.89
2018-10-12T21:46:07.000Z,99752.97
2018-10-12T21:48:35.477Z,99749.76
2018-10-12T21:51:04.768Z,99755.72
2018-10-12T21:53:33.182Z,99759.34
2018-10-12T21:56:02.280Z,99756.41
2018-10-12T21:58:30.739Z,99757.08
2018-10-12T22:01:05.325Z,99750.99
2018-10-12T22:03:36.399Z,99745.59
2018-10-12T22:06:05.418Z,99745.25
2018-10-12T22:08:39.131Z,99746.27
2018-10-12T22:11:07.987Z,99744.11
2018-10-12T22:13:36.937Z,99743.97
2018-10-12T22:16:05.383Z,99742.58
2018-10-12T22:18:33.766Z,99744.80
2018-10-12T22:21:02.713Z,99736.77
2018-10-12T22:23:31.211Z,99736.69
2018-10-12T22:25:59.727Z,99732.14
2018-10-12T22:28:28.104Z,99734.23
2018-10-12T22:30:56.521Z,99728.36
2018-10-12T22:33:24.951Z,99734.75
2018-10-12T22:35:53.475Z,99732.39
2018-10-12T22:38:21.948Z,99731.09
2018-10-12T22:40:50.512Z,99729.13
2018-10-12T22:43:18.930Z,99725.05
2018-10-12T22:45:47.347Z,99722.89
2018-10-12T22:48:15.842Z,99727.55
2018-10-12T22:50:44.324Z,99728.23
2018-10-12T22:53:12.788Z,99722.28
2018-10-12T22:55:41.329Z,99723.75
2018-10-12T22:58:10.199Z,99719.24
2018-10-12T23:00:39.124Z,99720.50
2018-10-12T23:03:07.839Z,99717.43
2018-10-12T23:05:36.275Z,99719.55
2018-10-12T23:08:04.728Z,99711.86
2018-10-12T23:10:33.481Z,99704.63
2018-10-12T23:13:01.970Z,99717.44
2018-10-12T23:15:30.368Z,99711.89
2018-10-12T23:17:58.895Z,99706.03
2018-10-12T23:20:27.353Z,99712.03
2018-10-12T23:22:55.814Z,99702.41
2018-10-12T23:25:24.239Z,99709.02
2018-10-12T23:27:52.739Z,99703.87
2018-10-12T23:30:21.157Z,99704.92
2018-10-12T23:32:49.780Z,99697.05
2018-10-12T23:35:18.497Z,99700.37
2018-10-12T23:37:47.045Z,99700.23
2018-10-12T23:40:15.561Z,99700.84
2018-10-12T23:42:43.993Z,99697.72
2018-10-12T23:45:12.554Z,99701.14
2018-10-12T23:47:41.063Z,99707.69
2018-10-12T23:50:09.564Z,99711.42
2018-10-12T23:52:38.016Z,99709.56
2018-10-12T23:55:06.517Z,99708.30
2018-10-12T23:57:36.032Z,99711.53
